Notice: Undefined index: language in /home/u908952976/domains/airgaviota-va.com/public_html/vam/index.php on line 25
AirGaviota-VA

... VIRTUAL FLIGHT...OUR PASSION



 FLIGHT DETAILS
Pilot: GVT462 Peter V. Aircraft: REDEYES - ANTONOV AN-2 (32V_64B) AN-2-GREEN Distance: 81NM
Departure MUPB Arrival MULM Duration 00:51
Validation Validated Type Charter Tail Number GV-AET
ZFW 4085 Block Fuel/Initial FOB 88/0 Flight Fuel 74
Passengers 10 Cargo 0 Alternate MUNG
Departure Time 0930 Cruise Speed 200 Flight Level 1500
Flight Type VFR Aircraft Type AN2 Weight Unit Kg
Date 17-04-2020 Pilot Comments Network IVAO
Crashed No Validator Comments Flight Rating 70

 ROUTE
ROUTE AUTOPISTA DE PINAR DEL RIO
REMARKS AIRGAVIOTA AEROTAXI VFR TOUR LEG01
 FLIGHT FAILURES
Crashed OK Beacon off & Engine Running Fail KIAS Above 250 below 10000 FT OK
Lights OFF below 10000 FT OK Lights ON above 10000 FT OK Stall OK
Overspeed OK Flight paused OK Refueling OK
Slew detected OK Taxi & Taxi lights off OK Take off & lights off OK
Landing & lights off OK Landed in not planned airport OK Taxi Speed OK
Wrong altimeter in Take off Fail Wrong altimeter in Landing Fail
 LANDING ANALYSIS
Landing wind 48º/3 kt Landing heading 225
Landing VS: -66.9 ft/min Landing IAS: 63.67 kt
Landing Force G 1 G Landing Bank -0.3
Landing Pitch -1.6 Landing Flaps 0
Navigation Lights ON Landing Lights ON
Beacon Lights OFF Strobe Lights OFF
 FLIGHT MAP
 ALTITUDE CHART
 FLIGHT FINANCIAL REPORT
 MAIN EVENTS
DATE EVENTIASALTITUDE
2020-04-17 11:16:59 SIM ACARS version 1.4.11112
2020-04-17 11:16:59 BOARDING1112
2020-04-17 11:19:18 STARTING ENGINE 1 1112
2020-04-17 11:19:18 BEACON LIGHT OFF & ENGINE ON1112
2020-04-17 11:23:30 FLAPS EXTENSION 3 % 0112
2020-04-17 11:23:30 FLAPS EXTENSION 5 % 0112
2020-04-17 11:23:30 FLAPS EXTENSION 6 % 0112
2020-04-17 11:23:31 FLAPS EXTENSION 8 % 0112
2020-04-17 11:23:31 FLAPS EXTENSION 10 % 0112
2020-04-17 11:23:31 FLAPS EXTENSION 12 % 0112
2020-04-17 11:23:31 FLAPS EXTENSION 14 % 0112
2020-04-17 11:23:31 FLAPS EXTENSION 17 % 0112
2020-04-17 11:23:31 FLAPS EXTENSION 19 % 0112
2020-04-17 11:23:32 FLAPS EXTENSION 21 % 0112
2020-04-17 11:23:32 FLAPS EXTENSION 23 % 0112
2020-04-17 11:23:32 FLAPS EXTENSION 24 % 0112
2020-04-17 11:23:32 FLAPS EXTENSION 26 % 0112
2020-04-17 11:23:32 FLAPS EXTENSION 28 % 0112
2020-04-17 11:23:32 FLAPS EXTENSION 30 % 0112
2020-04-17 11:23:33 FLAPS EXTENSION 32 % 0112
2020-04-17 11:23:33 FLAPS EXTENSION 34 % 0112
2020-04-17 11:26:30 TAXI TO THE RWY 9112
2020-04-17 11:29:47 ROLLING FOR TAKE OFF43113
2020-04-17 11:29:52 TAKE OFF50116
2020-04-17 11:30:05 FLAPS EXTENSION 31 % 47258
2020-04-17 11:30:05 FLAPS EXTENSION 29 % 47259
2020-04-17 11:30:06 FLAPS EXTENSION 28 % 47260
2020-04-17 11:30:06 FLAPS EXTENSION 27 % 47261
2020-04-17 11:30:06 FLAPS EXTENSION 25 % 47261
2020-04-17 11:30:06 FLAPS EXTENSION 22 % 47262
2020-04-17 11:30:06 FLAPS EXTENSION 20 % 47263
2020-04-17 11:30:06 FLAPS EXTENSION 18 % 47264
2020-04-17 11:30:52 CRUISE50370
2020-04-17 11:31:40 FLAPS EXTENSION 16 % 45393
2020-04-17 11:31:40 FLAPS EXTENSION 14 % 45393
2020-04-17 11:31:41 FLAPS EXTENSION 12 % 45392
2020-04-17 11:31:41 FLAPS EXTENSION 9 % 45392
2020-04-17 11:31:41 FLAPS EXTENSION 7 % 45391
2020-04-17 11:31:41 FLAPS EXTENSION 5 % 45391
2020-04-17 11:32:19 FLAPS EXTENSION 3 % 52405
2020-04-17 11:32:19 FLAPS EXTENSION 0 % 52407
2020-04-17 11:32:42 CLIMBING43506
2020-04-17 11:35:02 CRUISE561088
2020-04-17 11:35:42 CLIMBING671214
2020-04-17 11:36:42 CRUISE641369
2020-04-17 11:41:42 DESCEND731204
2020-04-17 11:42:52 CLIMBING731461
2020-04-17 11:43:42 CRUISE751607
2020-04-17 11:45:42 CLIMBING851891
2020-04-17 11:46:42 CRUISE852077
2020-04-17 11:47:52 CLIMBING912175
2020-04-17 11:48:52 CRUISE972206
2020-04-17 11:49:42 DESCEND1092099
2020-04-17 11:51:02 CRUISE972266
2020-04-17 11:52:32 DESCEND1271785
2020-04-17 11:54:12 CRUISE1191272
2020-04-17 11:55:42 DESCEND1131160
2020-04-17 11:56:32 CRUISE124913
2020-04-17 11:59:52 CLIMBING911122
2020-04-17 12:01:12 CRUISE981181
2020-04-17 12:07:22 CLIMBING961376
2020-04-17 12:07:52 DESCEND1141191
2020-04-17 12:08:32 CRUISE1051244
2020-04-17 12:09:22 CLIMBING981236
2020-04-17 12:10:12 CRUISE981239
2020-04-17 12:12:32 DESCEND1091123
2020-04-17 12:14:02 CRUISE102918
2020-04-17 12:17:22 DESCEND96997
2020-04-17 12:18:32 CRUISE74696
2020-04-17 12:18:36 FLAPS EXTENSION 4 % 70694
2020-04-17 12:18:36 FLAPS EXTENSION 6 % 69693
2020-04-17 12:18:36 FLAPS EXTENSION 10 % 69693
2020-04-17 12:18:36 FLAPS EXTENSION 12 % 69692
2020-04-17 12:18:36 FLAPS EXTENSION 13 % 69692
2020-04-17 12:18:40 FLAPS EXTENSION 15 % 65681
2020-04-17 12:18:40 FLAPS EXTENSION 19 % 64679
2020-04-17 12:18:40 FLAPS EXTENSION 21 % 64678
2020-04-17 12:18:40 FLAPS EXTENSION 23 % 64677
2020-04-17 12:18:40 FLAPS EXTENSION 24 % 64676
2020-04-17 12:18:44 FLAPS EXTENSION 26 % 62649
2020-04-17 12:18:44 FLAPS EXTENSION 28 % 62648
2020-04-17 12:18:44 FLAPS EXTENSION 30 % 62647
2020-04-17 12:18:44 FLAPS EXTENSION 31 % 61646
2020-04-17 12:18:45 FLAPS EXTENSION 33 % 61645
2020-04-17 12:18:45 FLAPS EXTENSION 37 % 61643
2020-04-17 12:18:45 FLAPS EXTENSION 39 % 61642
2020-04-17 12:18:45 FLAPS EXTENSION 41 % 61641
2020-04-17 12:18:45 FLAPS EXTENSION 43 % 61640
2020-04-17 12:18:46 FLAPS EXTENSION 45 % 61639
2020-04-17 12:18:46 FLAPS EXTENSION 47 % 60638
2020-04-17 12:18:46 FLAPS EXTENSION 48 % 60638
2020-04-17 12:18:46 FLAPS EXTENSION 50 % 60636
2020-04-17 12:18:46 FLAPS EXTENSION 51 % 60636
2020-04-17 12:18:56 FLAPS EXTENSION 52 % 58573
2020-04-17 12:18:56 FLAPS EXTENSION 56 % 58571
2020-04-17 12:18:56 FLAPS EXTENSION 57 % 58570
2020-04-17 12:18:57 FLAPS EXTENSION 59 % 58568
2020-04-17 12:18:57 FLAPS EXTENSION 61 % 58567
2020-04-17 12:18:57 FLAPS EXTENSION 63 % 58566
2020-04-17 12:18:57 FLAPS EXTENSION 65 % 58565
2020-04-17 12:18:57 FLAPS EXTENSION 67 % 58564
2020-04-17 12:18:57 FLAPS EXTENSION 69 % 58562
2020-04-17 12:18:58 FLAPS EXTENSION 73 % 58561
2020-04-17 12:18:58 FLAPS EXTENSION 75 % 58560
2020-04-17 12:18:58 FLAPS EXTENSION 77 % 58559
2020-04-17 12:18:58 FLAPS EXTENSION 79 % 58558
2020-04-17 12:18:58 FLAPS EXTENSION 82 % 58557
2020-04-17 12:18:59 FLAPS EXTENSION 84 % 58556
2020-04-17 12:18:59 FLAPS EXTENSION 86 % 58555
2020-04-17 12:18:59 FLAPS EXTENSION 88 % 58553
2020-04-17 12:18:59 FLAPS EXTENSION 90 % 58553
2020-04-17 12:18:59 FLAPS EXTENSION 92 % 58551
2020-04-17 12:18:59 FLAPS EXTENSION 94 % 57551
2020-04-17 12:19:00 FLAPS EXTENSION 96 % 57550
2020-04-17 12:19:00 FLAPS EXTENSION 100 % 57549
2020-04-17 12:19:00 FLAPS EXTENSION 100 % 57548
2020-04-17 12:19:12 DESCEND54501
2020-04-17 12:20:32 CRUISE54158
2020-04-17 12:21:08 LANDING64143
2020-04-17 12:21:31 TAXI TO THE GATE20141
2020-04-17 12:21:40 FLAPS EXTENSION 97 % 3141
2020-04-17 12:21:40 FLAPS EXTENSION 95 % 3141
2020-04-17 12:21:40 FLAPS EXTENSION 93 % 3141
2020-04-17 12:21:41 FLAPS EXTENSION 91 % 2141
2020-04-17 12:21:41 FLAPS EXTENSION 89 % 1141
2020-04-17 12:21:41 FLAPS EXTENSION 87 % 1141
2020-04-17 12:21:41 FLAPS EXTENSION 85 % 1141
2020-04-17 12:21:41 FLAPS EXTENSION 83 % 1141
2020-04-17 12:21:41 FLAPS EXTENSION 82 % 1141
2020-04-17 12:21:42 FLAPS EXTENSION 80 % 1141
2020-04-17 12:21:42 FLAPS EXTENSION 78 % 1141
2020-04-17 12:21:42 FLAPS EXTENSION 74 % 1141
2020-04-17 12:21:42 FLAPS EXTENSION 71 % 1141
2020-04-17 12:21:42 FLAPS EXTENSION 70 % 1141
2020-04-17 12:21:43 FLAPS EXTENSION 68 % 1141
2020-04-17 12:21:43 FLAPS EXTENSION 66 % 1141
2020-04-17 12:21:43 FLAPS EXTENSION 64 % 1141
2020-04-17 12:21:43 FLAPS EXTENSION 62 % 1141
2020-04-17 12:21:43 FLAPS EXTENSION 60 % 1141
2020-04-17 12:21:43 FLAPS EXTENSION 58 % 1141
2020-04-17 12:21:44 FLAPS EXTENSION 56 % 1141
2020-04-17 12:21:44 FLAPS EXTENSION 54 % 1141
2020-04-17 12:21:44 FLAPS EXTENSION 52 % 2141
2020-04-17 12:21:44 FLAPS EXTENSION 50 % 2141
2020-04-17 12:21:44 FLAPS EXTENSION 46 % 1141
2020-04-17 12:21:45 FLAPS EXTENSION 44 % 1141
2020-04-17 12:21:45 FLAPS EXTENSION 42 % 1141
2020-04-17 12:21:45 FLAPS EXTENSION 40 % 1141
2020-04-17 12:21:45 FLAPS EXTENSION 38 % 1141
2020-04-17 12:21:45 FLAPS EXTENSION 36 % 1141
2020-04-17 12:21:45 FLAPS EXTENSION 34 % 1141
2020-04-17 12:21:46 FLAPS EXTENSION 32 % 2141
2020-04-17 12:21:46 FLAPS EXTENSION 30 % 2141
2020-04-17 12:21:46 FLAPS EXTENSION 28 % 2141
2020-04-17 12:21:46 FLAPS EXTENSION 26 % 1141
2020-04-17 12:21:46 FLAPS EXTENSION 22 % 1141
2020-04-17 12:21:46 FLAPS EXTENSION 20 % 1141
2020-04-17 12:21:47 FLAPS EXTENSION 18 % 1141
2020-04-17 12:21:47 FLAPS EXTENSION 16 % 1141
2020-04-17 12:21:47 FLAPS EXTENSION 14 % 1141
2020-04-17 12:21:47 FLAPS EXTENSION 12 % 1141
2020-04-17 12:21:47 FLAPS EXTENSION 10 % 1141
2020-04-17 12:21:48 FLAPS EXTENSION 6 % 1141
2020-04-17 12:21:48 FLAPS EXTENSION 4 % 1141
2020-04-17 12:21:48 FLAPS EXTENSION 2 % 1141
2020-04-17 12:21:48 FLAPS EXTENSION 0 % 1141
2020-04-17 12:21:48 FLAPS EXTENSION 0 % 1141
2020-04-17 12:24:07 STOPPING ENGINE 1 0140
 ACARS DATA
DATE IASGSALTITUDEFUEL CONSUMED OATFLIGHT STATUS
2020-04-17 11:17:5900111126BOARDING
2020-04-17 11:18:5900111126BOARDING
2020-04-17 11:19:5900111126BOARDING
2020-04-17 11:20:5900111226BOARDING
2020-04-17 11:21:5900111326BOARDING
2020-04-17 11:22:5900111426BOARDING
2020-04-17 11:23:5900111526BOARDING
2020-04-17 11:24:5900111626BOARDING
2020-04-17 11:25:5979111726BOARDING
2020-04-17 11:26:5935111726TAXI TO THE RWY
2020-04-17 11:27:5957111826TAXI TO THE RWY
2020-04-17 11:28:5900111926TAXI TO THE RWY
2020-04-17 11:29:5952551811126CLIMBING
2020-04-17 11:30:5950523801326CRUISE
2020-04-17 11:31:5948513831426CRUISE
2020-04-17 11:32:5945515611625CLIMBING
2020-04-17 11:33:5959657871825CLIMBING
2020-04-17 11:34:59556010782024CLIMBING
2020-04-17 11:35:59596513372124CLIMBING
2020-04-17 11:36:59667113592224CRUISE
2020-04-17 11:37:59647013972424CRUISE
2020-04-17 11:38:59727813462524CRUISE
2020-04-17 11:39:59727712892624CRUISE
2020-04-17 11:39:28727812442724CRUISE
2020-04-17 11:40:28717712182924CRUISE
2020-04-17 11:41:28687412283024CRUISE
2020-04-17 11:42:28727913593123DESCEND
2020-04-17 11:43:28748015783323CLIMBING
2020-04-17 11:44:28828817153423CRUISE
2020-04-17 11:45:28849118613522CRUISE
2020-04-17 11:46:28849020373722CLIMBING
2020-04-17 11:47:28879421733821CRUISE
2020-04-17 11:48:289610321984021CLIMBING
2020-04-17 11:49:2810511321354122CRUISE
2020-04-17 11:50:2810211021754221DESCEND
2020-04-17 11:51:2810811721664421CRUISE
2020-04-17 11:52:2812313218524522CRUISE
2020-04-17 11:53:2811512315644723DESCEND
2020-04-17 11:54:2811011713064823CRUISE
2020-04-17 11:55:2810711412605024CRUISE
2020-04-17 11:56:281241309265124DESCEND
2020-04-17 11:57:281031099615324CRUISE
2020-04-17 11:58:281051119465424CRUISE
2020-04-17 11:59:281091159125624CRUISE
2020-04-17 12:00:289910511215724CLIMBING
2020-04-17 12:01:289810512205924CRUISE
2020-04-17 12:02:2810110812416024CRUISE
2020-04-17 12:03:2811211911546224CRUISE
2020-04-17 12:04:289710312646324CRUISE
2020-04-17 12:05:2810311012286424CRUISE
2020-04-17 12:06:289910612966624CRUISE
2020-04-17 12:07:28849114776723CLIMBING
2020-04-17 12:08:2810310912496924DESCEND
2020-04-17 12:09:2810310911997024CLIMBING
2020-04-17 12:10:2810411111767224CRUISE
2020-04-17 12:11:2810210811887324CRUISE
2020-04-17 12:12:2810811311517524CRUISE
2020-04-17 12:13:281031079367624DESCEND
2020-04-17 12:14:281001059127724CRUISE
2020-04-17 12:15:28991019757924CRUISE
2020-04-17 12:16:281051089608024CRUISE
2020-04-17 12:17:28961029498224DESCEND
2020-04-17 12:18:2877836958325DESCEND
2020-04-17 12:19:2858585148425DESCEND
2020-04-17 12:20:2855531628526DESCEND
2020-04-17 12:21:2826261418626LANDED
2020-04-17 12:22:2815151408726TAXI TO THE GATE
2020-04-17 12:23:28001408826TAXI TO THE GATE
2020-04-17 12:24:28001408926TAXI TO THE GATE